sensor_id;sensor_type;location;lat;lon;timestamp;P1;durP1;ratioP1;P2;durP2;ratioP2
53533;SDS011;39421;53.204;6.568;2023-11-18T00:00:54;23.77;;;17.23;;
53533;SDS011;39421;53.204;6.568;2023-11-18T00:03:21;22.83;;;16.58;;
53533;SDS011;39421;53.204;6.568;2023-11-18T00:05:47;23.15;;;16.98;;
53533;SDS011;39421;53.204;6.568;2023-11-18T00:08:13;23.43;;;16.40;;
53533;SDS011;39421;53.204;6.568;2023-11-18T00:10:39;24.90;;;17.35;;
53533;SDS011;39421;53.204;6.568;2023-11-18T00:13:05;24.42;;;16.33;;
53533;SDS011;39421;53.204;6.568;2023-11-18T00:15:31;22.70;;;15.90;;
53533;SDS011;39421;53.204;6.568;2023-11-18T00:18:00;24.45;;;16.55;;
53533;SDS011;39421;53.204;6.568;2023-11-18T00:20:26;24.27;;;16.45;;
53533;SDS011;39421;53.204;6.568;2023-11-18T00:22:54;23.80;;;16.38;;
53533;SDS011;39421;53.204;6.568;2023-11-18T00:25:20;22.80;;;16.00;;
53533;SDS011;39421;53.204;6.568;2023-11-18T00:27:46;24.45;;;16.85;;
53533;SDS011;39421;53.204;6.568;2023-11-18T00:30:12;24.65;;;16.85;;
53533;SDS011;39421;53.204;6.568;2023-11-18T00:32:39;24.45;;;16.63;;
53533;SDS011;39421;53.204;6.568;2023-11-18T00:35:05;24.45;;;16.63;;
53533;SDS011;39421;53.204;6.568;2023-11-18T00:37:32;25.55;;;17.02;;
53533;SDS011;39421;53.204;6.568;2023-11-18T00:39:58;26.27;;;17.23;;
53533;SDS011;39421;53.204;6.568;2023-11-18T00:42:27;24.63;;;16.15;;
53533;SDS011;39421;53.204;6.568;2023-11-18T00:44:53;25.50;;;17.37;;
53533;SDS011;39421;53.204;6.568;2023-11-18T00:47:20;27.77;;;16.90;;
53533;SDS011;39421;53.204;6.568;2023-11-18T00:49:48;26.33;;;17.95;;
53533;SDS011;39421;53.204;6.568;2023-11-18T00:52:15;26.50;;;16.93;;
53533;SDS011;39421;53.204;6.568;2023-11-18T00:54:46;25.88;;;17.13;;
53533;SDS011;39421;53.204;6.568;2023-11-18T00:57:13;24.90;;;16.95;;
53533;SDS011;39421;53.204;6.568;2023-11-18T00:59:42;28.05;;;17.80;;
53533;SDS011;39421;53.204;6.568;2023-11-18T01:02:08;28.10;;;18.07;;
53533;SDS011;39421;53.204;6.568;2023-11-18T01:04:36;26.48;;;17.77;;
53533;SDS011;39421;53.204;6.568;2023-11-18T01:07:02;28.40;;;19.08;;
53533;SDS011;39421;53.204;6.568;2023-11-18T01:09:28;26.90;;;18.55;;
53533;SDS011;39421;53.204;6.568;2023-11-18T01:11:58;28.58;;;19.00;;
53533;SDS011;39421;53.204;6.568;2023-11-18T01:14:24;28.20;;;19.05;;
53533;SDS011;39421;53.204;6.568;2023-11-18T01:16:50;29.90;;;19.50;;
53533;SDS011;39421;53.204;6.568;2023-11-18T01:19:17;26.90;;;18.20;;
53533;SDS011;39421;53.204;6.568;2023-11-18T01:21:43;28.63;;;19.15;;
53533;SDS011;39421;53.204;6.568;2023-11-18T01:24:12;27.52;;;18.95;;
53533;SDS011;39421;53.204;6.568;2023-11-18T01:26:40;28.63;;;18.52;;
53533;SDS011;39421;53.204;6.568;2023-11-18T01:29:07;27.67;;;18.77;;
53533;SDS011;39421;53.204;6.568;2023-11-18T01:31:33;29.75;;;19.17;;
53533;SDS011;39421;53.204;6.568;2023-11-18T01:34:00;26.38;;;17.30;;
53533;SDS011;39421;53.204;6.568;2023-11-18T01:36:26;27.67;;;18.08;;
53533;SDS011;39421;53.204;6.568;2023-11-18T01:38:52;29.67;;;18.65;;
53533;SDS011;39421;53.204;6.568;2023-11-18T01:41:20;28.85;;;18.70;;
53533;SDS011;39421;53.204;6.568;2023-11-18T01:43:47;27.83;;;18.63;;
53533;SDS011;39421;53.204;6.568;2023-11-18T01:46:13;27.88;;;18.58;;
53533;SDS011;39421;53.204;6.568;2023-11-18T01:48:42;26.58;;;17.38;;
53533;SDS011;39421;53.204;6.568;2023-11-18T01:51:08;27.27;;;18.65;;
53533;SDS011;39421;53.204;6.568;2023-11-18T01:53:36;29.70;;;19.00;;
53533;SDS011;39421;53.204;6.568;2023-11-18T01:56:05;29.92;;;19.63;;
53533;SDS011;39421;53.204;6.568;2023-11-18T01:58:34;29.85;;;19.42;;
53533;SDS011;39421;53.204;6.568;2023-11-18T02:01:02;29.42;;;19.27;;
53533;SDS011;39421;53.204;6.568;2023-11-18T02:03:33;32.40;;;20.25;;
53533;SDS011;39421;53.204;6.568;2023-11-18T02:06:05;32.75;;;20.77;;
53533;SDS011;39421;53.204;6.568;2023-11-18T02:08:32;32.60;;;20.65;;
53533;SDS011;39421;53.204;6.568;2023-11-18T02:11:01;33.72;;;21.23;;
53533;SDS011;39421;53.204;6.568;2023-11-18T02:13:32;35.83;;;21.90;;
53533;SDS011;39421;53.204;6.568;2023-11-18T02:16:00;35.15;;;21.77;;
53533;SDS011;39421;53.204;6.568;2023-11-18T02:18:30;34.50;;;21.80;;
53533;SDS011;39421;53.204;6.568;2023-11-18T02:20:56;36.45;;;21.90;;
53533;SDS011;39421;53.204;6.568;2023-11-18T02:23:23;34.47;;;21.25;;
53533;SDS011;39421;53.204;6.568;2023-11-18T02:25:51;31.50;;;20.43;;
53533;SDS011;39421;53.204;6.568;2023-11-18T02:28:18;33.40;;;20.33;;
53533;SDS011;39421;53.204;6.568;2023-11-18T02:30:45;34.40;;;20.73;;
53533;SDS011;39421;53.204;6.568;2023-11-18T02:35:51;45.33;;;23.13;;
53533;SDS011;39421;53.204;6.568;2023-11-18T02:38:19;47.13;;;23.88;;
53533;SDS011;39421;53.204;6.568;2023-11-18T02:40:48;40.42;;;22.42;;
53533;SDS011;39421;53.204;6.568;2023-11-18T02:43:22;37.40;;;22.33;;
53533;SDS011;39421;53.204;6.568;2023-11-18T02:45:49;54.40;;;24.33;;
53533;SDS011;39421;53.204;6.568;2023-11-18T02:48:15;39.22;;;22.58;;
53533;SDS011;39421;53.204;6.568;2023-11-18T02:50:43;63.20;;;23.85;;
53533;SDS011;39421;53.204;6.568;2023-11-18T02:53:09;75.88;;;25.02;;
53533;SDS011;39421;53.204;6.568;2023-11-18T02:55:35;102.40;;;27.08;;
53533;SDS011;39421;53.204;6.568;2023-11-18T02:58:01;79.80;;;26.87;;
53533;SDS011;39421;53.204;6.568;2023-11-18T03:00:28;98.00;;;25.45;;
53533;SDS011;39421;53.204;6.568;2023-11-18T03:02:54;114.55;;;27.60;;
53533;SDS011;39421;53.204;6.568;2023-11-18T03:05:21;68.30;;;24.20;;
53533;SDS011;39421;53.204;6.568;2023-11-18T03:07:47;93.95;;;25.67;;
53533;SDS011;39421;53.204;6.568;2023-11-18T03:10:21;242.70;;;33.15;;
53533;SDS011;39421;53.204;6.568;2023-11-18T03:12:48;85.77;;;25.57;;
53533;SDS011;39421;53.204;6.568;2023-11-18T03:15:15;147.57;;;28.85;;
53533;SDS011;39421;53.204;6.568;2023-11-18T03:17:48;201.25;;;27.75;;
53533;SDS011;39421;53.204;6.568;2023-11-18T03:20:21;183.60;;;29.63;;
53533;SDS011;39421;53.204;6.568;2023-11-18T03:22:48;219.25;;;31.23;;
53533;SDS011;39421;53.204;6.568;2023-11-18T03:25:16;226.48;;;31.15;;
53533;SDS011;39421;53.204;6.568;2023-11-18T03:27:42;116.80;;;25.93;;
53533;SDS011;39421;53.204;6.568;2023-11-18T03:30:15;324.77;;;34.20;;
53533;SDS011;39421;53.204;6.568;2023-11-18T03:32:47;95.88;;;24.85;;
53533;SDS011;39421;53.204;6.568;2023-11-18T03:35:13;71.70;;;24.10;;
53533;SDS011;39421;53.204;6.568;2023-11-18T03:37:40;228.57;;;31.25;;
53533;SDS011;39421;53.204;6.568;2023-11-18T03:40:09;206.13;;;29.25;;
53533;SDS011;39421;53.204;6.568;2023-11-18T03:42:36;191.27;;;26.85;;
53533;SDS011;39421;53.204;6.568;2023-11-18T03:45:02;117.75;;;25.08;;
53533;SDS011;39421;53.204;6.568;2023-11-18T03:47:29;138.27;;;26.33;;
53533;SDS011;39421;53.204;6.568;2023-11-18T03:49:56;140.05;;;25.88;;
53533;SDS011;39421;53.204;6.568;2023-11-18T03:52:22;158.45;;;27.20;;
53533;SDS011;39421;53.204;6.568;2023-11-18T03:54:49;253.73;;;32.08;;
53533;SDS011;39421;53.204;6.568;2023-11-18T03:57:17;60.13;;;21.97;;
53533;SDS011;39421;53.204;6.568;2023-11-18T03:59:46;221.27;;;31.50;;
53533;SDS011;39421;53.204;6.568;2023-11-18T04:02:13;130.00;;;26.90;;
53533;SDS011;39421;53.204;6.568;2023-11-18T04:04:39;100.03;;;24.48;;
53533;SDS011;39421;53.204;6.568;2023-11-18T04:07:06;190.18;;;29.17;;
53533;SDS011;39421;53.204;6.568;2023-11-18T04:09:32;99.07;;;23.90;;
53533;SDS011;39421;53.204;6.568;2023-11-18T04:11:59;76.30;;;24.13;;
53533;SDS011;39421;53.204;6.568;2023-11-18T04:14:26;83.63;;;24.42;;
53533;SDS011;39421;53.204;6.568;2023-11-18T04:16:52;52.50;;;22.00;;
53533;SDS011;39421;53.204;6.568;2023-11-18T04:19:25;39.67;;;20.83;;
53533;SDS011;39421;53.204;6.568;2023-11-18T04:21:52;163.02;;;27.27;;
53533;SDS011;39421;53.204;6.568;2023-11-18T04:24:18;160.47;;;27.67;;
53533;SDS011;39421;53.204;6.568;2023-11-18T04:26:44;57.50;;;23.25;;
53533;SDS011;39421;53.204;6.568;2023-11-18T04:29:13;74.95;;;23.48;;
53533;SDS011;39421;53.204;6.568;2023-11-18T04:31:39;147.93;;;25.77;;
53533;SDS011;39421;53.204;6.568;2023-11-18T04:34:05;46.97;;;22.02;;
53533;SDS011;39421;53.204;6.568;2023-11-18T04:36:31;114.63;;;24.55;;
53533;SDS011;39421;53.204;6.568;2023-11-18T04:38:57;46.15;;;21.15;;
53533;SDS011;39421;53.204;6.568;2023-11-18T04:41:24;130.45;;;26.23;;
53533;SDS011;39421;53.204;6.568;2023-11-18T04:43:54;51.90;;;22.33;;
53533;SDS011;39421;53.204;6.568;2023-11-18T04:46:20;114.85;;;25.83;;
53533;SDS011;39421;53.204;6.568;2023-11-18T04:48:47;60.47;;;22.43;;
53533;SDS011;39421;53.204;6.568;2023-11-18T04:51:13;90.78;;;23.92;;
53533;SDS011;39421;53.204;6.568;2023-11-18T04:53:39;96.80;;;24.25;;
53533;SDS011;39421;53.204;6.568;2023-11-18T04:56:05;49.42;;;21.60;;
53533;SDS011;39421;53.204;6.568;2023-11-18T04:58:37;56.72;;;23.38;;
53533;SDS011;39421;53.204;6.568;2023-11-18T05:01:04;63.17;;;22.55;;
53533;SDS011;39421;53.204;6.568;2023-11-18T05:03:30;62.58;;;22.40;;
53533;SDS011;39421;53.204;6.568;2023-11-18T05:05:56;93.40;;;24.42;;
53533;SDS011;39421;53.204;6.568;2023-11-18T05:08:22;87.28;;;24.33;;
53533;SDS011;39421;53.204;6.568;2023-11-18T05:10:49;89.53;;;24.52;;
53533;SDS011;39421;53.204;6.568;2023-11-18T05:13:17;88.17;;;23.87;;
53533;SDS011;39421;53.204;6.568;2023-11-18T05:15:44;117.80;;;27.27;;
53533;SDS011;39421;53.204;6.568;2023-11-18T05:18:14;90.90;;;24.05;;
53533;SDS011;39421;53.204;6.568;2023-11-18T05:20:40;72.30;;;23.87;;
53533;SDS011;39421;53.204;6.568;2023-11-18T05:23:07;36.72;;;21.63;;
53533;SDS011;39421;53.204;6.568;2023-11-18T05:25:41;51.35;;;23.40;;
53533;SDS011;39421;53.204;6.568;2023-11-18T05:28:08;47.25;;;22.73;;
53533;SDS011;39421;53.204;6.568;2023-11-18T05:30:35;49.38;;;21.25;;
53533;SDS011;39421;53.204;6.568;2023-11-18T05:33:04;84.95;;;26.25;;
53533;SDS011;39421;53.204;6.568;2023-11-18T05:35:31;57.27;;;21.90;;
53533;SDS011;39421;53.204;6.568;2023-11-18T05:37:58;71.57;;;23.60;;
53533;SDS011;39421;53.204;6.568;2023-11-18T05:40:28;65.85;;;22.90;;
53533;SDS011;39421;53.204;6.568;2023-11-18T05:42:55;97.88;;;24.95;;
53533;SDS011;39421;53.204;6.568;2023-11-18T05:45:26;76.13;;;23.27;;
53533;SDS011;39421;53.204;6.568;2023-11-18T05:47:55;134.93;;;25.87;;
53533;SDS011;39421;53.204;6.568;2023-11-18T05:50:22;189.27;;;28.00;;
53533;SDS011;39421;53.204;6.568;2023-11-18T05:52:57;115.15;;;25.33;;
53533;SDS011;39421;53.204;6.568;2023-11-18T05:55:23;140.45;;;27.80;;
53533;SDS011;39421;53.204;6.568;2023-11-18T05:57:52;87.53;;;22.83;;
53533;SDS011;39421;53.204;6.568;2023-11-18T06:00:19;115.88;;;26.13;;
53533;SDS011;39421;53.204;6.568;2023-11-18T06:02:46;84.07;;;23.88;;
53533;SDS011;39421;53.204;6.568;2023-11-18T06:05:12;93.55;;;23.95;;
53533;SDS011;39421;53.204;6.568;2023-11-18T06:07:42;179.60;;;29.37;;
53533;SDS011;39421;53.204;6.568;2023-11-18T06:10:08;113.97;;;25.48;;
53533;SDS011;39421;53.204;6.568;2023-11-18T06:12:40;127.88;;;27.77;;
53533;SDS011;39421;53.204;6.568;2023-11-18T06:15:06;100.15;;;24.40;;
53533;SDS011;39421;53.204;6.568;2023-11-18T06:17:34;46.78;;;21.90;;
53533;SDS011;39421;53.204;6.568;2023-11-18T06:20:00;62.53;;;23.75;;
53533;SDS011;39421;53.204;6.568;2023-11-18T06:22:27;96.05;;;26.00;;
53533;SDS011;39421;53.204;6.568;2023-11-18T06:24:53;110.47;;;26.25;;
53533;SDS011;39421;53.204;6.568;2023-11-18T06:27:19;55.25;;;23.65;;
53533;SDS011;39421;53.204;6.568;2023-11-18T06:29:49;73.28;;;23.55;;
53533;SDS011;39421;53.204;6.568;2023-11-18T06:32:19;68.03;;;24.88;;
53533;SDS011;39421;53.204;6.568;2023-11-18T06:34:47;124.88;;;27.67;;
53533;SDS011;39421;53.204;6.568;2023-11-18T06:37:14;103.30;;;26.37;;
53533;SDS011;39421;53.204;6.568;2023-11-18T06:39:43;95.93;;;27.52;;
53533;SDS011;39421;53.204;6.568;2023-11-18T06:42:12;113.75;;;28.33;;
53533;SDS011;39421;53.204;6.568;2023-11-18T06:44:39;164.27;;;31.58;;
53533;SDS011;39421;53.204;6.568;2023-11-18T06:47:05;58.25;;;24.95;;
53533;SDS011;39421;53.204;6.568;2023-11-18T06:49:32;49.92;;;23.55;;
53533;SDS011;39421;53.204;6.568;2023-11-18T06:52:03;45.80;;;24.45;;
53533;SDS011;39421;53.204;6.568;2023-11-18T06:54:30;80.17;;;26.37;;
53533;SDS011;39421;53.204;6.568;2023-11-18T06:56:58;98.10;;;28.30;;
53533;SDS011;39421;53.204;6.568;2023-11-18T06:59:30;60.83;;;25.80;;
53533;SDS011;39421;53.204;6.568;2023-11-18T07:01:56;77.68;;;27.05;;
53533;SDS011;39421;53.204;6.568;2023-11-18T07:04:22;50.85;;;24.70;;
53533;SDS011;39421;53.204;6.568;2023-11-18T07:06:51;88.13;;;27.10;;
53533;SDS011;39421;53.204;6.568;2023-11-18T07:09:21;74.40;;;27.30;;
53533;SDS011;39421;53.204;6.568;2023-11-18T07:11:51;50.77;;;24.60;;
53533;SDS011;39421;53.204;6.568;2023-11-18T07:14:17;49.92;;;25.35;;
53533;SDS011;39421;53.204;6.568;2023-11-18T07:16:43;51.60;;;24.83;;
53533;SDS011;39421;53.204;6.568;2023-11-18T07:19:10;46.20;;;24.52;;
53533;SDS011;39421;53.204;6.568;2023-11-18T07:21:42;81.45;;;26.38;;
53533;SDS011;39421;53.204;6.568;2023-11-18T07:24:08;55.05;;;23.60;;
53533;SDS011;39421;53.204;6.568;2023-11-18T07:26:36;59.47;;;24.98;;
53533;SDS011;39421;53.204;6.568;2023-11-18T07:29:02;102.55;;;27.05;;
53533;SDS011;39421;53.204;6.568;2023-11-18T07:31:28;80.03;;;27.50;;
53533;SDS011;39421;53.204;6.568;2023-11-18T07:33:54;134.97;;;30.93;;
53533;SDS011;39421;53.204;6.568;2023-11-18T07:36:23;86.10;;;27.38;;
53533;SDS011;39421;53.204;6.568;2023-11-18T07:38:49;62.85;;;27.40;;
53533;SDS011;39421;53.204;6.568;2023-11-18T07:41:20;68.22;;;26.92;;
53533;SDS011;39421;53.204;6.568;2023-11-18T07:43:52;70.43;;;27.17;;
53533;SDS011;39421;53.204;6.568;2023-11-18T07:46:19;73.82;;;28.20;;
53533;SDS011;39421;53.204;6.568;2023-11-18T07:48:49;73.75;;;28.13;;
53533;SDS011;39421;53.204;6.568;2023-11-18T07:51:17;70.25;;;27.77;;
53533;SDS011;39421;53.204;6.568;2023-11-18T07:53:46;57.13;;;25.85;;
53533;SDS011;39421;53.204;6.568;2023-11-18T07:56:12;57.60;;;26.05;;
53533;SDS011;39421;53.204;6.568;2023-11-18T07:58:41;54.33;;;26.15;;
53533;SDS011;39421;53.204;6.568;2023-11-18T08:01:10;80.63;;;27.80;;
53533;SDS011;39421;53.204;6.568;2023-11-18T08:03:36;73.82;;;28.27;;
53533;SDS011;39421;53.204;6.568;2023-11-18T08:06:03;64.73;;;25.93;;
53533;SDS011;39421;53.204;6.568;2023-11-18T08:08:32;74.82;;;26.92;;
53533;SDS011;39421;53.204;6.568;2023-11-18T08:10:58;77.78;;;27.50;;
53533;SDS011;39421;53.204;6.568;2023-11-18T08:13:28;70.60;;;27.92;;
53533;SDS011;39421;53.204;6.568;2023-11-18T08:15:54;53.20;;;25.52;;
53533;SDS011;39421;53.204;6.568;2023-11-18T08:18:20;82.05;;;28.00;;
53533;SDS011;39421;53.204;6.568;2023-11-18T08:20:53;62.50;;;26.30;;
53533;SDS011;39421;53.204;6.568;2023-11-18T08:23:20;87.57;;;28.33;;
53533;SDS011;39421;53.204;6.568;2023-11-18T08:25:46;87.53;;;28.60;;
53533;SDS011;39421;53.204;6.568;2023-11-18T08:28:16;75.95;;;28.70;;
53533;SDS011;39421;53.204;6.568;2023-11-18T08:30:43;62.88;;;27.83;;
53533;SDS011;39421;53.204;6.568;2023-11-18T08:33:09;77.57;;;28.63;;
53533;SDS011;39421;53.204;6.568;2023-11-18T08:35:36;74.07;;;27.02;;
53533;SDS011;39421;53.204;6.568;2023-11-18T08:38:03;64.85;;;27.85;;
53533;SDS011;39421;53.204;6.568;2023-11-18T08:40:32;64.13;;;26.38;;
53533;SDS011;39421;53.204;6.568;2023-11-18T08:42:59;75.47;;;27.63;;
53533;SDS011;39421;53.204;6.568;2023-11-18T08:45:26;64.00;;;26.95;;
53533;SDS011;39421;53.204;6.568;2023-11-18T08:47:59;75.50;;;27.53;;
53533;SDS011;39421;53.204;6.568;2023-11-18T08:50:27;74.30;;;28.30;;
53533;SDS011;39421;53.204;6.568;2023-11-18T08:52:54;67.10;;;27.88;;
53533;SDS011;39421;53.204;6.568;2023-11-18T08:55:30;66.70;;;27.45;;
53533;SDS011;39421;53.204;6.568;2023-11-18T08:58:12;74.30;;;27.75;;
53533;SDS011;39421;53.204;6.568;2023-11-18T09:00:51;80.65;;;28.35;;
53533;SDS011;39421;53.204;6.568;2023-11-18T09:03:26;75.50;;;27.67;;
53533;SDS011;39421;53.204;6.568;2023-11-18T09:05:56;81.18;;;28.17;;
53533;SDS011;39421;53.204;6.568;2023-11-18T09:08:27;81.88;;;28.80;;
53533;SDS011;39421;53.204;6.568;2023-11-18T09:11:07;72.15;;;28.08;;
53533;SDS011;39421;53.204;6.568;2023-11-18T09:13:35;69.90;;;28.08;;
53533;SDS011;39421;53.204;6.568;2023-11-18T09:16:03;65.55;;;26.92;;
53533;SDS011;39421;53.204;6.568;2023-11-18T09:18:29;75.80;;;28.05;;
53533;SDS011;39421;53.204;6.568;2023-11-18T09:20:58;65.70;;;26.98;;
53533;SDS011;39421;53.204;6.568;2023-11-18T09:23:26;65.20;;;26.98;;
53533;SDS011;39421;53.204;6.568;2023-11-18T09:25:53;67.23;;;26.70;;
53533;SDS011;39421;53.204;6.568;2023-11-18T09:28:20;71.25;;;27.13;;
53533;SDS011;39421;53.204;6.568;2023-11-18T09:30:47;62.03;;;26.90;;
53533;SDS011;39421;53.204;6.568;2023-11-18T09:33:23;66.13;;;26.50;;
53533;SDS011;39421;53.204;6.568;2023-11-18T09:36:02;74.35;;;28.90;;
53533;SDS011;39421;53.204;6.568;2023-11-18T09:38:34;72.90;;;28.27;;
53533;SDS011;39421;53.204;6.568;2023-11-18T09:41:01;71.18;;;27.63;;
53533;SDS011;39421;53.204;6.568;2023-11-18T09:43:31;65.83;;;27.00;;
53533;SDS011;39421;53.204;6.568;2023-11-18T09:46:05;64.05;;;27.33;;
53533;SDS011;39421;53.204;6.568;2023-11-18T09:48:50;82.53;;;29.45;;
53533;SDS011;39421;53.204;6.568;2023-11-18T09:51:28;72.55;;;28.63;;
53533;SDS011;39421;53.204;6.568;2023-11-18T09:54:00;62.78;;;26.77;;
53533;SDS011;39421;53.204;6.568;2023-11-18T09:59:18;68.35;;;28.58;;
53533;SDS011;39421;53.204;6.568;2023-11-18T10:01:53;62.85;;;27.60;;
53533;SDS011;39421;53.204;6.568;2023-11-18T10:04:20;62.15;;;27.80;;
53533;SDS011;39421;53.204;6.568;2023-11-18T10:06:46;60.20;;;27.23;;
53533;SDS011;39421;53.204;6.568;2023-11-18T10:09:14;59.57;;;27.87;;
53533;SDS011;39421;53.204;6.568;2023-11-18T10:11:47;62.20;;;27.37;;
53533;SDS011;39421;53.204;6.568;2023-11-18T10:14:15;59.85;;;28.23;;
53533;SDS011;39421;53.204;6.568;2023-11-18T10:16:45;62.40;;;28.83;;
53533;SDS011;39421;53.204;6.568;2023-11-18T10:19:15;55.10;;;26.67;;
53533;SDS011;39421;53.204;6.568;2023-11-18T10:21:42;55.47;;;27.00;;
53533;SDS011;39421;53.204;6.568;2023-11-18T10:24:08;57.03;;;27.70;;
53533;SDS011;39421;53.204;6.568;2023-11-18T10:26:44;65.07;;;29.77;;
53533;SDS011;39421;53.204;6.568;2023-11-18T10:29:18;58.60;;;28.42;;
53533;SDS011;39421;53.204;6.568;2023-11-18T10:31:44;64.03;;;28.70;;
53533;SDS011;39421;53.204;6.568;2023-11-18T10:34:11;62.92;;;29.90;;
53533;SDS011;39421;53.204;6.568;2023-11-18T10:36:40;61.55;;;29.55;;
53533;SDS011;39421;53.204;6.568;2023-11-18T10:39:06;63.53;;;29.58;;
53533;SDS011;39421;53.204;6.568;2023-11-18T10:41:41;60.72;;;30.08;;
53533;SDS011;39421;53.204;6.568;2023-11-18T10:44:08;60.53;;;29.95;;
53533;SDS011;39421;53.204;6.568;2023-11-18T10:46:41;59.33;;;29.60;;
53533;SDS011;39421;53.204;6.568;2023-11-18T10:49:18;59.30;;;29.77;;
53533;SDS011;39421;53.204;6.568;2023-11-18T10:51:44;58.70;;;29.88;;
53533;SDS011;39421;53.204;6.568;2023-11-18T10:54:12;61.70;;;30.00;;
53533;SDS011;39421;53.204;6.568;2023-11-18T10:57:00;56.53;;;29.27;;
53533;SDS011;39421;53.204;6.568;2023-11-18T10:59:35;58.13;;;29.92;;
53533;SDS011;39421;53.204;6.568;2023-11-18T11:02:05;53.50;;;29.87;;
53533;SDS011;39421;53.204;6.568;2023-11-18T11:04:44;57.53;;;30.13;;
53533;SDS011;39421;53.204;6.568;2023-11-18T11:07:11;54.40;;;29.45;;
53533;SDS011;39421;53.204;6.568;2023-11-18T11:09:38;55.03;;;29.15;;
53533;SDS011;39421;53.204;6.568;2023-11-18T11:12:11;56.38;;;29.15;;
53533;SDS011;39421;53.204;6.568;2023-11-18T11:17:48;50.80;;;28.23;;
53533;SDS011;39421;53.204;6.568;2023-11-18T11:20:18;52.25;;;29.50;;
53533;SDS011;39421;53.204;6.568;2023-11-18T11:28:08;47.95;;;26.88;;
53533;SDS011;39421;53.204;6.568;2023-11-18T11:30:45;47.83;;;26.53;;
53533;SDS011;39421;53.204;6.568;2023-11-18T11:35:43;44.30;;;25.35;;
53533;SDS011;39421;53.204;6.568;2023-11-18T11:38:13;44.45;;;25.27;;
53533;SDS011;39421;53.204;6.568;2023-11-18T11:40:41;43.22;;;23.98;;
53533;SDS011;39421;53.204;6.568;2023-11-18T11:43:08;39.63;;;22.85;;
53533;SDS011;39421;53.204;6.568;2023-11-18T11:45:38;41.60;;;23.20;;
53533;SDS011;39421;53.204;6.568;2023-11-18T11:48:06;37.15;;;21.95;;
53533;SDS011;39421;53.204;6.568;2023-11-18T11:53:15;34.30;;;19.73;;
53533;SDS011;39421;53.204;6.568;2023-11-18T11:55:46;33.30;;;19.52;;
53533;SDS011;39421;53.204;6.568;2023-11-18T11:58:33;34.15;;;20.60;;
53533;SDS011;39421;53.204;6.568;2023-11-18T12:01:02;32.88;;;19.65;;
53533;SDS011;39421;53.204;6.568;2023-11-18T12:03:43;33.95;;;19.70;;
53533;SDS011;39421;53.204;6.568;2023-11-18T12:06:13;31.90;;;18.43;;
53533;SDS011;39421;53.204;6.568;2023-11-18T12:08:41;31.57;;;18.00;;
53533;SDS011;39421;53.204;6.568;2023-11-18T12:11:09;33.72;;;19.23;;
53533;SDS011;39421;53.204;6.568;2023-11-18T12:13:37;30.48;;;18.35;;
53533;SDS011;39421;53.204;6.568;2023-11-18T12:16:10;30.10;;;17.48;;
53533;SDS011;39421;53.204;6.568;2023-11-18T12:18:40;29.00;;;17.33;;
53533;SDS011;39421;53.204;6.568;2023-11-18T12:21:08;30.45;;;17.65;;
53533;SDS011;39421;53.204;6.568;2023-11-18T12:26:54;31.15;;;17.65;;
53533;SDS011;39421;53.204;6.568;2023-11-18T12:29:33;31.07;;;17.33;;
53533;SDS011;39421;53.204;6.568;2023-11-18T12:31:59;33.08;;;18.58;;
53533;SDS011;39421;53.204;6.568;2023-11-18T12:40:05;31.33;;;17.80;;
53533;SDS011;39421;53.204;6.568;2023-11-18T12:46:03;30.35;;;17.25;;
53533;SDS011;39421;53.204;6.568;2023-11-18T12:48:16;30.73;;;17.35;;
53533;SDS011;39421;53.204;6.568;2023-11-18T12:50:51;28.10;;;17.33;;
53533;SDS011;39421;53.204;6.568;2023-11-18T12:53:20;31.15;;;17.27;;
53533;SDS011;39421;53.204;6.568;2023-11-18T12:55:49;29.55;;;16.65;;
53533;SDS011;39421;53.204;6.568;2023-11-18T12:58:15;28.50;;;16.63;;
53533;SDS011;39421;53.204;6.568;2023-11-18T13:00:43;26.95;;;16.15;;
53533;SDS011;39421;53.204;6.568;2023-11-18T13:03:11;27.60;;;15.40;;
53533;SDS011;39421;53.204;6.568;2023-11-18T13:05:40;28.90;;;15.63;;
53533;SDS011;39421;53.204;6.568;2023-11-18T13:08:08;29.20;;;16.17;;
53533;SDS011;39421;53.204;6.568;2023-11-18T13:10:35;27.98;;;15.82;;
53533;SDS011;39421;53.204;6.568;2023-11-18T13:13:01;26.95;;;15.57;;
53533;SDS011;39421;53.204;6.568;2023-11-18T13:15:30;26.08;;;15.25;;
53533;SDS011;39421;53.204;6.568;2023-11-18T13:17:59;25.75;;;14.85;;
53533;SDS011;39421;53.204;6.568;2023-11-18T13:20:26;26.52;;;15.32;;
53533;SDS011;39421;53.204;6.568;2023-11-18T13:22:52;24.73;;;14.30;;
53533;SDS011;39421;53.204;6.568;2023-11-18T13:25:21;24.85;;;14.27;;
53533;SDS011;39421;53.204;6.568;2023-11-18T13:27:47;21.67;;;13.63;;
53533;SDS011;39421;53.204;6.568;2023-11-18T13:30:16;26.85;;;14.38;;
53533;SDS011;39421;53.204;6.568;2023-11-18T13:32:43;25.15;;;14.73;;
53533;SDS011;39421;53.204;6.568;2023-11-18T13:35:10;25.77;;;15.13;;
53533;SDS011;39421;53.204;6.568;2023-11-18T13:37:38;25.65;;;14.95;;
53533;SDS011;39421;53.204;6.568;2023-11-18T13:40:07;24.97;;;14.90;;
53533;SDS011;39421;53.204;6.568;2023-11-18T13:42:33;24.67;;;14.85;;
53533;SDS011;39421;53.204;6.568;2023-11-18T13:45:03;27.07;;;15.73;;
53533;SDS011;39421;53.204;6.568;2023-11-18T13:47:37;25.13;;;15.10;;
53533;SDS011;39421;53.204;6.568;2023-11-18T13:50:06;27.42;;;16.42;;
53533;SDS011;39421;53.204;6.568;2023-11-18T13:52:34;27.38;;;16.00;;
53533;SDS011;39421;53.204;6.568;2023-11-18T13:55:00;28.15;;;16.08;;
53533;SDS011;39421;53.204;6.568;2023-11-18T13:57:26;27.63;;;16.45;;
53533;SDS011;39421;53.204;6.568;2023-11-18T13:59:52;27.25;;;15.85;;
53533;SDS011;39421;53.204;6.568;2023-11-18T14:02:19;28.05;;;16.67;;
53533;SDS011;39421;53.204;6.568;2023-11-18T14:04:46;25.55;;;15.50;;
53533;SDS011;39421;53.204;6.568;2023-11-18T14:07:14;25.13;;;15.95;;
53533;SDS011;39421;53.204;6.568;2023-11-18T14:09:42;26.65;;;15.00;;
53533;SDS011;39421;53.204;6.568;2023-11-18T14:12:10;25.88;;;15.30;;
53533;SDS011;39421;53.204;6.568;2023-11-18T14:14:36;24.53;;;15.03;;
53533;SDS011;39421;53.204;6.568;2023-11-18T14:17:06;25.27;;;15.13;;
53533;SDS011;39421;53.204;6.568;2023-11-18T14:19:35;25.10;;;14.95;;
53533;SDS011;39421;53.204;6.568;2023-11-18T14:22:01;23.58;;;13.80;;
53533;SDS011;39421;53.204;6.568;2023-11-18T14:24:32;25.53;;;13.63;;
53533;SDS011;39421;53.204;6.568;2023-11-18T14:26:58;25.60;;;14.70;;
53533;SDS011;39421;53.204;6.568;2023-11-18T14:29:24;25.27;;;14.73;;
53533;SDS011;39421;53.204;6.568;2023-11-18T14:31:52;24.67;;;14.50;;
53533;SDS011;39421;53.204;6.568;2023-11-18T14:34:19;26.15;;;14.18;;
53533;SDS011;39421;53.204;6.568;2023-11-18T14:36:45;23.83;;;13.53;;
53533;SDS011;39421;53.204;6.568;2023-11-18T14:39:11;23.65;;;13.75;;
53533;SDS011;39421;53.204;6.568;2023-11-18T14:41:39;23.67;;;14.07;;
53533;SDS011;39421;53.204;6.568;2023-11-18T14:44:05;23.33;;;14.17;;
53533;SDS011;39421;53.204;6.568;2023-11-18T14:46:34;24.83;;;14.50;;
53533;SDS011;39421;53.204;6.568;2023-11-18T14:49:03;24.05;;;14.02;;
53533;SDS011;39421;53.204;6.568;2023-11-18T14:51:31;22.60;;;13.45;;
53533;SDS011;39421;53.204;6.568;2023-11-18T14:53:57;23.15;;;14.13;;
53533;SDS011;39421;53.204;6.568;2023-11-18T14:56:23;23.55;;;13.90;;
53533;SDS011;39421;53.204;6.568;2023-11-18T14:58:49;23.05;;;14.20;;